sensor_id;sensor_type;location;lat;lon;timestamp;P1;durP1;ratioP1;P2;durP2;ratioP2
5507;SDS011;2776;51.046;6.772;2023-06-14T00:01:35;5.23;;;4.77;;
5507;SDS011;2776;51.046;6.772;2023-06-14T00:04:03;7.73;;;5.10;;
5507;SDS011;2776;51.046;6.772;2023-06-14T00:06:32;6.40;;;5.23;;
5507;SDS011;2776;51.046;6.772;2023-06-14T00:08:59;6.77;;;5.40;;
5507;SDS011;2776;51.046;6.772;2023-06-14T00:11:26;10.27;;;5.93;;
5507;SDS011;2776;51.046;6.772;2023-06-14T00:13:54;6.93;;;5.40;;
5507;SDS011;2776;51.046;6.772;2023-06-14T00:16:21;9.13;;;6.00;;
5507;SDS011;2776;51.046;6.772;2023-06-14T00:18:48;6.23;;;5.63;;
5507;SDS011;2776;51.046;6.772;2023-06-14T00:21:16;6.33;;;5.73;;
5507;SDS011;2776;51.046;6.772;2023-06-14T00:23:45;7.07;;;5.70;;
5507;SDS011;2776;51.046;6.772;2023-06-14T00:26:12;6.07;;;5.20;;
5507;SDS011;2776;51.046;6.772;2023-06-14T00:28:39;6.13;;;5.43;;
5507;SDS011;2776;51.046;6.772;2023-06-14T00:31:06;6.87;;;5.07;;
5507;SDS011;2776;51.046;6.772;2023-06-14T00:33:32;8.13;;;5.70;;
5507;SDS011;2776;51.046;6.772;2023-06-14T00:35:59;6.00;;;5.33;;
5507;SDS011;2776;51.046;6.772;2023-06-14T00:38:26;5.83;;;5.33;;
5507;SDS011;2776;51.046;6.772;2023-06-14T00:40:54;6.50;;;5.87;;
5507;SDS011;2776;51.046;6.772;2023-06-14T00:43:21;8.20;;;5.57;;
5507;SDS011;2776;51.046;6.772;2023-06-14T00:45:47;6.50;;;5.77;;
5507;SDS011;2776;51.046;6.772;2023-06-14T00:48:16;6.27;;;5.17;;
5507;SDS011;2776;51.046;6.772;2023-06-14T00:50:43;8.67;;;5.90;;
5507;SDS011;2776;51.046;6.772;2023-06-14T00:53:13;8.53;;;6.27;;
5507;SDS011;2776;51.046;6.772;2023-06-14T00:55:42;6.23;;;5.63;;
5507;SDS011;2776;51.046;6.772;2023-06-14T00:58:10;8.03;;;5.93;;
5507;SDS011;2776;51.046;6.772;2023-06-14T01:00:37;6.27;;;5.67;;
5507;SDS011;2776;51.046;6.772;2023-06-14T01:03:04;6.27;;;5.67;;
5507;SDS011;2776;51.046;6.772;2023-06-14T01:05:31;8.33;;;4.90;;
5507;SDS011;2776;51.046;6.772;2023-06-14T01:08:04;8.63;;;5.33;;
5507;SDS011;2776;51.046;6.772;2023-06-14T01:10:42;6.00;;;5.40;;
5507;SDS011;2776;51.046;6.772;2023-06-14T01:13:18;6.10;;;5.50;;
5507;SDS011;2776;51.046;6.772;2023-06-14T01:15:47;6.63;;;5.93;;
5507;SDS011;2776;51.046;6.772;2023-06-14T01:18:16;8.43;;;6.13;;
5507;SDS011;2776;51.046;6.772;2023-06-14T01:20:44;7.07;;;5.93;;
5507;SDS011;2776;51.046;6.772;2023-06-14T01:23:15;7.07;;;6.33;;
5507;SDS011;2776;51.046;6.772;2023-06-14T01:25:42;8.63;;;6.43;;
5507;SDS011;2776;51.046;6.772;2023-06-14T01:28:09;7.43;;;6.00;;
5507;SDS011;2776;51.046;6.772;2023-06-14T01:30:38;12.00;;;6.40;;
5507;SDS011;2776;51.046;6.772;2023-06-14T01:33:09;6.23;;;5.70;;
5507;SDS011;2776;51.046;6.772;2023-06-14T01:35:37;6.80;;;6.00;;
5507;SDS011;2776;51.046;6.772;2023-06-14T01:38:04;9.50;;;6.83;;
5507;SDS011;2776;51.046;6.772;2023-06-14T01:40:34;8.37;;;5.87;;
5507;SDS011;2776;51.046;6.772;2023-06-14T01:43:01;7.50;;;6.07;;
5507;SDS011;2776;51.046;6.772;2023-06-14T01:45:29;9.33;;;6.30;;
5507;SDS011;2776;51.046;6.772;2023-06-14T01:47:57;8.77;;;5.83;;
5507;SDS011;2776;51.046;6.772;2023-06-14T01:50:24;7.77;;;6.50;;
5507;SDS011;2776;51.046;6.772;2023-06-14T01:52:54;7.93;;;5.80;;
5507;SDS011;2776;51.046;6.772;2023-06-14T01:55:21;5.87;;;5.37;;
5507;SDS011;2776;51.046;6.772;2023-06-14T01:57:51;6.37;;;5.63;;
5507;SDS011;2776;51.046;6.772;2023-06-14T02:00:18;7.07;;;5.20;;
5507;SDS011;2776;51.046;6.772;2023-06-14T02:02:46;6.50;;;5.90;;
5507;SDS011;2776;51.046;6.772;2023-06-14T02:05:14;7.13;;;6.43;;
5507;SDS011;2776;51.046;6.772;2023-06-14T02:07:44;7.90;;;6.97;;
5507;SDS011;2776;51.046;6.772;2023-06-14T02:10:11;10.60;;;6.90;;
5507;SDS011;2776;51.046;6.772;2023-06-14T02:12:37;7.37;;;6.73;;
5507;SDS011;2776;51.046;6.772;2023-06-14T02:15:06;7.53;;;6.83;;
5507;SDS011;2776;51.046;6.772;2023-06-14T02:17:34;7.70;;;6.90;;
5507;SDS011;2776;51.046;6.772;2023-06-14T02:20:00;10.23;;;6.70;;
5507;SDS011;2776;51.046;6.772;2023-06-14T02:22:28;9.93;;;7.17;;
5507;SDS011;2776;51.046;6.772;2023-06-14T02:24:55;7.30;;;6.53;;
5507;SDS011;2776;51.046;6.772;2023-06-14T02:27:21;9.50;;;7.23;;
5507;SDS011;2776;51.046;6.772;2023-06-14T02:29:48;9.47;;;7.33;;
5507;SDS011;2776;51.046;6.772;2023-06-14T02:32:16;10.53;;;7.43;;
5507;SDS011;2776;51.046;6.772;2023-06-14T02:34:43;8.23;;;6.67;;
5507;SDS011;2776;51.046;6.772;2023-06-14T02:37:09;9.90;;;7.20;;
5507;SDS011;2776;51.046;6.772;2023-06-14T02:39:38;8.63;;;6.83;;
5507;SDS011;2776;51.046;6.772;2023-06-14T02:42:05;8.13;;;7.27;;
5507;SDS011;2776;51.046;6.772;2023-06-14T02:44:32;14.97;;;7.37;;
5507;SDS011;2776;51.046;6.772;2023-06-14T02:47:00;10.93;;;7.13;;
5507;SDS011;2776;51.046;6.772;2023-06-14T02:49:28;8.13;;;7.27;;
5507;SDS011;2776;51.046;6.772;2023-06-14T02:51:55;8.10;;;7.30;;
5507;SDS011;2776;51.046;6.772;2023-06-14T02:54:22;7.43;;;6.73;;
5507;SDS011;2776;51.046;6.772;2023-06-14T02:56:49;9.00;;;7.10;;
5507;SDS011;2776;51.046;6.772;2023-06-14T02:59:16;8.03;;;7.23;;
5507;SDS011;2776;51.046;6.772;2023-06-14T03:01:44;9.00;;;7.70;;
5507;SDS011;2776;51.046;6.772;2023-06-14T03:04:11;7.37;;;6.50;;
5507;SDS011;2776;51.046;6.772;2023-06-14T03:06:39;7.53;;;6.57;;
5507;SDS011;2776;51.046;6.772;2023-06-14T03:09:05;7.57;;;6.70;;
5507;SDS011;2776;51.046;6.772;2023-06-14T03:11:34;7.60;;;6.80;;
5507;SDS011;2776;51.046;6.772;2023-06-14T03:14:01;10.40;;;7.60;;
5507;SDS011;2776;51.046;6.772;2023-06-14T03:16:29;8.20;;;6.70;;
5507;SDS011;2776;51.046;6.772;2023-06-14T03:18:56;9.13;;;6.60;;
5507;SDS011;2776;51.046;6.772;2023-06-14T03:21:23;8.67;;;7.40;;
5507;SDS011;2776;51.046;6.772;2023-06-14T03:23:51;9.43;;;7.17;;
5507;SDS011;2776;51.046;6.772;2023-06-14T03:26:18;10.20;;;6.90;;
5507;SDS011;2776;51.046;6.772;2023-06-14T03:28:45;7.73;;;7.07;;
5507;SDS011;2776;51.046;6.772;2023-06-14T03:31:13;10.70;;;7.40;;
5507;SDS011;2776;51.046;6.772;2023-06-14T03:33:40;10.20;;;6.43;;
5507;SDS011;2776;51.046;6.772;2023-06-14T03:36:06;10.47;;;7.57;;
5507;SDS011;2776;51.046;6.772;2023-06-14T03:38:33;8.20;;;7.30;;
5507;SDS011;2776;51.046;6.772;2023-06-14T03:41:02;7.30;;;6.60;;
5507;SDS011;2776;51.046;6.772;2023-06-14T03:43:28;13.30;;;7.50;;
5507;SDS011;2776;51.046;6.772;2023-06-14T03:45:56;9.43;;;6.80;;
5507;SDS011;2776;51.046;6.772;2023-06-14T03:48:22;7.43;;;6.73;;
5507;SDS011;2776;51.046;6.772;2023-06-14T03:50:49;7.63;;;6.47;;
5507;SDS011;2776;51.046;6.772;2023-06-14T03:53:16;8.13;;;7.47;;
5507;SDS011;2776;51.046;6.772;2023-06-14T03:55:45;9.93;;;6.73;;
5507;SDS011;2776;51.046;6.772;2023-06-14T03:58:14;8.20;;;7.07;;
5507;SDS011;2776;51.046;6.772;2023-06-14T04:00:41;7.37;;;6.77;;
5507;SDS011;2776;51.046;6.772;2023-06-14T04:03:08;11.47;;;7.40;;
5507;SDS011;2776;51.046;6.772;2023-06-14T04:05:35;8.67;;;7.50;;
5507;SDS011;2776;51.046;6.772;2023-06-14T04:08:02;9.43;;;7.50;;
5507;SDS011;2776;51.046;6.772;2023-06-14T04:10:29;10.20;;;7.70;;
5507;SDS011;2776;51.046;6.772;2023-06-14T04:12:56;9.40;;;7.20;;
5507;SDS011;2776;51.046;6.772;2023-06-14T04:15:24;8.80;;;7.73;;
5507;SDS011;2776;51.046;6.772;2023-06-14T04:17:53;8.83;;;7.47;;
5507;SDS011;2776;51.046;6.772;2023-06-14T04:20:22;8.67;;;7.87;;
5507;SDS011;2776;51.046;6.772;2023-06-14T04:22:50;7.73;;;7.03;;
5507;SDS011;2776;51.046;6.772;2023-06-14T04:25:17;10.17;;;7.50;;
5507;SDS011;2776;51.046;6.772;2023-06-14T04:27:44;10.20;;;7.40;;
5507;SDS011;2776;51.046;6.772;2023-06-14T04:30:12;12.40;;;7.30;;
5507;SDS011;2776;51.046;6.772;2023-06-14T04:32:40;11.37;;;7.37;;
5507;SDS011;2776;51.046;6.772;2023-06-14T04:35:07;7.90;;;7.10;;
5507;SDS011;2776;51.046;6.772;2023-06-14T04:37:35;7.47;;;6.77;;
5507;SDS011;2776;51.046;6.772;2023-06-14T04:40:05;8.67;;;7.20;;
5507;SDS011;2776;51.046;6.772;2023-06-14T04:42:33;8.23;;;6.57;;
5507;SDS011;2776;51.046;6.772;2023-06-14T04:45:02;6.87;;;6.30;;
5507;SDS011;2776;51.046;6.772;2023-06-14T04:47:29;9.87;;;7.23;;
5507;SDS011;2776;51.046;6.772;2023-06-14T04:49:57;9.43;;;7.17;;
5507;SDS011;2776;51.046;6.772;2023-06-14T04:52:25;8.70;;;6.97;;
5507;SDS011;2776;51.046;6.772;2023-06-14T04:54:54;7.90;;;7.10;;
5507;SDS011;2776;51.046;6.772;2023-06-14T04:57:21;9.40;;;6.47;;
5507;SDS011;2776;51.046;6.772;2023-06-14T04:59:50;8.07;;;7.23;;
5507;SDS011;2776;51.046;6.772;2023-06-14T05:02:20;8.47;;;6.83;;
5507;SDS011;2776;51.046;6.772;2023-06-14T05:04:48;10.20;;;7.03;;
5507;SDS011;2776;51.046;6.772;2023-06-14T05:07:16;12.37;;;6.80;;
5507;SDS011;2776;51.046;6.772;2023-06-14T05:09:42;7.73;;;6.63;;
5507;SDS011;2776;51.046;6.772;2023-06-14T05:12:10;7.77;;;5.93;;
5507;SDS011;2776;51.046;6.772;2023-06-14T05:14:37;6.40;;;5.27;;
5507;SDS011;2776;51.046;6.772;2023-06-14T05:17:04;6.03;;;5.53;;
5507;SDS011;2776;51.046;6.772;2023-06-14T05:19:31;8.73;;;5.17;;
5507;SDS011;2776;51.046;6.772;2023-06-14T05:21:58;5.70;;;4.07;;
5507;SDS011;2776;51.046;6.772;2023-06-14T05:24:26;4.95;;;4.30;;
5507;SDS011;2776;51.046;6.772;2023-06-14T05:26:54;6.57;;;4.10;;
5507;SDS011;2776;51.046;6.772;2023-06-14T05:29:21;4.20;;;3.60;;
5507;SDS011;2776;51.046;6.772;2023-06-14T05:31:48;10.63;;;3.47;;
5507;SDS011;2776;51.046;6.772;2023-06-14T05:34:14;4.65;;;3.25;;
5507;SDS011;2776;51.046;6.772;2023-06-14T05:36:41;5.72;;;3.00;;
5507;SDS011;2776;51.046;6.772;2023-06-14T05:39:08;7.03;;;3.50;;
5507;SDS011;2776;51.046;6.772;2023-06-14T05:41:36;5.13;;;3.33;;
5507;SDS011;2776;51.046;6.772;2023-06-14T05:44:03;4.13;;;3.35;;
5507;SDS011;2776;51.046;6.772;2023-06-14T05:46:30;5.75;;;3.63;;
5507;SDS011;2776;51.046;6.772;2023-06-14T05:48:57;4.60;;;3.28;;
5507;SDS011;2776;51.046;6.772;2023-06-14T05:51:23;5.22;;;3.30;;
5507;SDS011;2776;51.046;6.772;2023-06-14T05:53:51;4.93;;;3.47;;
5507;SDS011;2776;51.046;6.772;2023-06-14T05:56:18;6.30;;;3.35;;
5507;SDS011;2776;51.046;6.772;2023-06-14T05:58:46;5.05;;;3.40;;
5507;SDS011;2776;51.046;6.772;2023-06-14T06:01:13;7.63;;;3.35;;
5507;SDS011;2776;51.046;6.772;2023-06-14T06:03:40;4.47;;;3.60;;
5507;SDS011;2776;51.046;6.772;2023-06-14T06:06:10;7.10;;;3.28;;
5507;SDS011;2776;51.046;6.772;2023-06-14T06:08:37;3.47;;;3.08;;
5507;SDS011;2776;51.046;6.772;2023-06-14T06:11:05;5.28;;;3.05;;
5507;SDS011;2776;51.046;6.772;2023-06-14T06:13:32;4.22;;;3.33;;
5507;SDS011;2776;51.046;6.772;2023-06-14T06:16:01;4.68;;;3.30;;
5507;SDS011;2776;51.046;6.772;2023-06-14T06:18:28;4.22;;;3.20;;
5507;SDS011;2776;51.046;6.772;2023-06-14T06:20:54;6.88;;;3.60;;
5507;SDS011;2776;51.046;6.772;2023-06-14T06:23:21;4.40;;;3.25;;
5507;SDS011;2776;51.046;6.772;2023-06-14T06:25:48;6.28;;;3.38;;
5507;SDS011;2776;51.046;6.772;2023-06-14T06:28:15;4.90;;;3.33;;
5507;SDS011;2776;51.046;6.772;2023-06-14T06:30:41;7.18;;;3.38;;
5507;SDS011;2776;51.046;6.772;2023-06-14T06:33:10;6.97;;;3.30;;
5507;SDS011;2776;51.046;6.772;2023-06-14T06:35:37;6.10;;;3.22;;
5507;SDS011;2776;51.046;6.772;2023-06-14T06:38:03;4.57;;;3.30;;
5507;SDS011;2776;51.046;6.772;2023-06-14T06:40:30;5.53;;;3.60;;
5507;SDS011;2776;51.046;6.772;2023-06-14T06:42:57;8.45;;;3.53;;
5507;SDS011;2776;51.046;6.772;2023-06-14T06:45:24;7.15;;;3.17;;
5507;SDS011;2776;51.046;6.772;2023-06-14T06:47:50;5.68;;;3.30;;
5507;SDS011;2776;51.046;6.772;2023-06-14T06:50:18;6.13;;;3.40;;
5507;SDS011;2776;51.046;6.772;2023-06-14T06:52:48;4.72;;;3.22;;
5507;SDS011;2776;51.046;6.772;2023-06-14T06:55:15;3.88;;;3.35;;
5507;SDS011;2776;51.046;6.772;2023-06-14T06:57:43;4.60;;;3.10;;
5507;SDS011;2776;51.046;6.772;2023-06-14T07:00:10;5.88;;;3.10;;
5507;SDS011;2776;51.046;6.772;2023-06-14T07:02:37;4.30;;;2.63;;
5507;SDS011;2776;51.046;6.772;2023-06-14T07:05:04;4.40;;;2.80;;
5507;SDS011;2776;51.046;6.772;2023-06-14T07:07:33;6.03;;;3.00;;
5507;SDS011;2776;51.046;6.772;2023-06-14T07:10:00;3.92;;;2.67;;
5507;SDS011;2776;51.046;6.772;2023-06-14T07:12:29;3.92;;;2.78;;
5507;SDS011;2776;51.046;6.772;2023-06-14T07:14:56;4.20;;;2.58;;
5507;SDS011;2776;51.046;6.772;2023-06-14T07:17:23;2.60;;;2.40;;
5507;SDS011;2776;51.046;6.772;2023-06-14T07:19:50;4.53;;;2.60;;
5507;SDS011;2776;51.046;6.772;2023-06-14T07:22:18;6.22;;;2.47;;
5507;SDS011;2776;51.046;6.772;2023-06-14T07:24:46;5.82;;;2.13;;
5507;SDS011;2776;51.046;6.772;2023-06-14T07:27:13;3.75;;;2.38;;
5507;SDS011;2776;51.046;6.772;2023-06-14T07:29:40;2.97;;;2.42;;
5507;SDS011;2776;51.046;6.772;2023-06-14T07:32:07;3.28;;;2.53;;
5507;SDS011;2776;51.046;6.772;2023-06-14T07:34:33;4.00;;;2.25;;
5507;SDS011;2776;51.046;6.772;2023-06-14T07:37:00;4.65;;;2.00;;
5507;SDS011;2776;51.046;6.772;2023-06-14T07:39:27;4.10;;;1.98;;
5507;SDS011;2776;51.046;6.772;2023-06-14T07:41:55;3.40;;;1.95;;
5507;SDS011;2776;51.046;6.772;2023-06-14T07:44:22;3.85;;;2.03;;
5507;SDS011;2776;51.046;6.772;2023-06-14T07:46:49;6.72;;;2.13;;
5507;SDS011;2776;51.046;6.772;2023-06-14T07:49:15;2.95;;;1.85;;
5507;SDS011;2776;51.046;6.772;2023-06-14T07:51:42;2.25;;;1.95;;
5507;SDS011;2776;51.046;6.772;2023-06-14T07:54:11;2.55;;;2.00;;
5507;SDS011;2776;51.046;6.772;2023-06-14T07:56:37;5.28;;;2.13;;
5507;SDS011;2776;51.046;6.772;2023-06-14T07:59:06;2.50;;;1.58;;
5507;SDS011;2776;51.046;6.772;2023-06-14T08:01:32;2.00;;;1.60;;
5507;SDS011;2776;51.046;6.772;2023-06-14T08:04:01;2.38;;;1.45;;
5507;SDS011;2776;51.046;6.772;2023-06-14T08:06:27;1.48;;;1.38;;
5507;SDS011;2776;51.046;6.772;2023-06-14T08:08:55;2.30;;;1.60;;
5507;SDS011;2776;51.046;6.772;2023-06-14T08:11:22;2.17;;;1.35;;
5507;SDS011;2776;51.046;6.772;2023-06-14T08:13:49;3.53;;;1.55;;
5507;SDS011;2776;51.046;6.772;2023-06-14T08:16:17;2.00;;;1.23;;
5507;SDS011;2776;51.046;6.772;2023-06-14T08:18:44;3.17;;;1.30;;
5507;SDS011;2776;51.046;6.772;2023-06-14T08:21:11;2.05;;;1.13;;
5507;SDS011;2776;51.046;6.772;2023-06-14T08:23:39;1.92;;;1.30;;
5507;SDS011;2776;51.046;6.772;2023-06-14T08:26:07;1.38;;;1.27;;
5507;SDS011;2776;51.046;6.772;2023-06-14T08:28:34;2.40;;;1.45;;
5507;SDS011;2776;51.046;6.772;2023-06-14T08:31:01;1.20;;;1.10;;
5507;SDS011;2776;51.046;6.772;2023-06-14T08:33:29;2.10;;;1.60;;
5507;SDS011;2776;51.046;6.772;2023-06-14T08:35:57;2.28;;;1.65;;
5507;SDS011;2776;51.046;6.772;2023-06-14T08:38:24;1.75;;;1.45;;
5507;SDS011;2776;51.046;6.772;2023-06-14T08:40:51;1.65;;;1.30;;
5507;SDS011;2776;51.046;6.772;2023-06-14T08:43:23;3.28;;;1.50;;
5507;SDS011;2776;51.046;6.772;2023-06-14T08:45:50;2.05;;;1.70;;
5507;SDS011;2776;51.046;6.772;2023-06-14T08:48:19;3.63;;;1.65;;
5507;SDS011;2776;51.046;6.772;2023-06-14T08:50:51;2.65;;;1.50;;
5507;SDS011;2776;51.046;6.772;2023-06-14T08:53:27;2.65;;;1.67;;
5507;SDS011;2776;51.046;6.772;2023-06-14T08:55:57;2.13;;;1.42;;
5507;SDS011;2776;51.046;6.772;2023-06-14T08:58:26;1.85;;;1.70;;
5507;SDS011;2776;51.046;6.772;2023-06-14T09:00:54;2.65;;;1.70;;
5507;SDS011;2776;51.046;6.772;2023-06-14T09:03:21;2.90;;;1.73;;
5507;SDS011;2776;51.046;6.772;2023-06-14T09:05:56;2.38;;;1.58;;
5507;SDS011;2776;51.046;6.772;2023-06-14T09:08:23;2.58;;;1.50;;
5507;SDS011;2776;51.046;6.772;2023-06-14T09:10:51;1.63;;;1.40;;
5507;SDS011;2776;51.046;6.772;2023-06-14T09:13:17;2.58;;;1.35;;
5507;SDS011;2776;51.046;6.772;2023-06-14T09:15:44;2.35;;;1.65;;
5507;SDS011;2776;51.046;6.772;2023-06-14T09:18:11;1.88;;;1.77;;
5507;SDS011;2776;51.046;6.772;2023-06-14T09:20:38;3.30;;;1.95;;
5507;SDS011;2776;51.046;6.772;2023-06-14T09:23:06;4.43;;;1.60;;
5507;SDS011;2776;51.046;6.772;2023-06-14T09:25:34;6.10;;;1.92;;
5507;SDS011;2776;51.046;6.772;2023-06-14T09:28:08;3.90;;;1.80;;
5507;SDS011;2776;51.046;6.772;2023-06-14T09:30:36;5.18;;;1.90;;
5507;SDS011;2776;51.046;6.772;2023-06-14T09:33:03;3.72;;;1.80;;
5507;SDS011;2776;51.046;6.772;2023-06-14T09:35:30;2.83;;;1.90;;
5507;SDS011;2776;51.046;6.772;2023-06-14T09:37:57;4.93;;;2.05;;
5507;SDS011;2776;51.046;6.772;2023-06-14T09:40:26;2.45;;;1.80;;
5507;SDS011;2776;51.046;6.772;2023-06-14T09:42:52;2.95;;;1.60;;
5507;SDS011;2776;51.046;6.772;2023-06-14T09:45:22;2.92;;;1.35;;
5507;SDS011;2776;51.046;6.772;2023-06-14T09:47:49;2.70;;;1.60;;
5507;SDS011;2776;51.046;6.772;2023-06-14T09:50:16;1.70;;;1.60;;
5507;SDS011;2776;51.046;6.772;2023-06-14T09:52:43;2.72;;;1.67;;
5507;SDS011;2776;51.046;6.772;2023-06-14T09:55:13;4.63;;;1.30;;
5507;SDS011;2776;51.046;6.772;2023-06-14T09:57:42;2.58;;;1.50;;
5507;SDS011;2776;51.046;6.772;2023-06-14T10:00:14;1.85;;;1.60;;
5507;SDS011;2776;51.046;6.772;2023-06-14T10:02:43;2.17;;;1.63;;
5507;SDS011;2776;51.046;6.772;2023-06-14T10:05:15;1.63;;;1.45;;
5507;SDS011;2776;51.046;6.772;2023-06-14T10:07:48;2.00;;;1.27;;
5507;SDS011;2776;51.046;6.772;2023-06-14T10:10:18;3.08;;;1.83;;
5507;SDS011;2776;51.046;6.772;2023-06-14T10:12:47;5.10;;;1.52;;
5507;SDS011;2776;51.046;6.772;2023-06-14T10:15:15;1.63;;;1.52;;
5507;SDS011;2776;51.046;6.772;2023-06-14T10:17:47;1.85;;;1.48;;
5507;SDS011;2776;51.046;6.772;2023-06-14T10:20:23;1.95;;;1.40;;
5507;SDS011;2776;51.046;6.772;2023-06-14T10:22:57;1.90;;;1.40;;
5507;SDS011;2776;51.046;6.772;2023-06-14T10:25:28;3.25;;;1.75;;
5507;SDS011;2776;51.046;6.772;2023-06-14T10:28:15;3.45;;;1.15;;
5507;SDS011;2776;51.046;6.772;2023-06-14T10:31:02;3.40;;;1.23;;
5507;SDS011;2776;51.046;6.772;2023-06-14T10:33:30;2.90;;;1.70;;
5507;SDS011;2776;51.046;6.772;2023-06-14T10:38:59;3.55;;;1.50;;
5507;SDS011;2776;51.046;6.772;2023-06-14T10:41:31;4.53;;;1.52;;
5507;SDS011;2776;51.046;6.772;2023-06-14T10:47:07;2.35;;;1.70;;
5507;SDS011;2776;51.046;6.772;2023-06-14T10:49:36;3.75;;;1.70;;
5507;SDS011;2776;51.046;6.772;2023-06-14T10:52:07;3.97;;;1.70;;
5507;SDS011;2776;51.046;6.772;2023-06-14T10:54:55;5.85;;;1.90;;
5507;SDS011;2776;51.046;6.772;2023-06-14T10:57:34;1.73;;;1.30;;
5507;SDS011;2776;51.046;6.772;2023-06-14T11:00:03;2.20;;;1.85;;
5507;SDS011;2776;51.046;6.772;2023-06-14T11:05:50;3.22;;;1.95;;
5507;SDS011;2776;51.046;6.772;2023-06-14T11:08:26;2.65;;;1.70;;
5507;SDS011;2776;51.046;6.772;2023-06-14T11:11:05;2.63;;;1.90;;
5507;SDS011;2776;51.046;6.772;2023-06-14T11:13:33;3.05;;;2.20;;
5507;SDS011;2776;51.046;6.772;2023-06-14T11:16:04;5.45;;;2.17;;
5507;SDS011;2776;51.046;6.772;2023-06-14T11:18:37;3.15;;;2.00;;
5507;SDS011;2776;51.046;6.772;2023-06-14T11:21:03;4.13;;;1.95;;
5507;SDS011;2776;51.046;6.772;2023-06-14T11:23:30;2.92;;;1.90;;
5507;SDS011;2776;51.046;6.772;2023-06-14T11:25:57;2.83;;;1.80;;
5507;SDS011;2776;51.046;6.772;2023-06-14T11:28:23;2.28;;;1.98;;
5507;SDS011;2776;51.046;6.772;2023-06-14T11:30:59;1.92;;;1.83;;
5507;SDS011;2776;51.046;6.772;2023-06-14T11:33:27;3.00;;;1.67;;
5507;SDS011;2776;51.046;6.772;2023-06-14T11:35:54;5.00;;;2.00;;
5507;SDS011;2776;51.046;6.772;2023-06-14T11:38:21;1.90;;;1.80;;
5507;SDS011;2776;51.046;6.772;2023-06-14T11:40:47;5.35;;;2.03;;
5507;SDS011;2776;51.046;6.772;2023-06-14T11:43:14;8.43;;;1.90;;
5507;SDS011;2776;51.046;6.772;2023-06-14T11:45:41;6.25;;;1.75;;
5507;SDS011;2776;51.046;6.772;2023-06-14T11:48:08;9.18;;;2.20;;
5507;SDS011;2776;51.046;6.772;2023-06-14T11:50:37;3.03;;;1.80;;
5507;SDS011;2776;51.046;6.772;2023-06-14T11:53:04;4.78;;;1.85;;
5507;SDS011;2776;51.046;6.772;2023-06-14T11:55:35;3.38;;;1.67;;
5507;SDS011;2776;51.046;6.772;2023-06-14T11:58:02;6.38;;;1.90;;
5507;SDS011;2776;51.046;6.772;2023-06-14T12:00:29;2.47;;;2.00;;
5507;SDS011;2776;51.046;6.772;2023-06-14T12:02:56;4.03;;;1.63;;
5507;SDS011;2776;51.046;6.772;2023-06-14T12:05:24;3.90;;;1.80;;
5507;SDS011;2776;51.046;6.772;2023-06-14T12:07:57;3.30;;;1.60;;
5507;SDS011;2776;51.046;6.772;2023-06-14T12:10:24;1.90;;;1.80;;
5507;SDS011;2776;51.046;6.772;2023-06-14T12:12:56;4.13;;;1.60;;
5507;SDS011;2776;51.046;6.772;2023-06-14T12:15:23;2.65;;;1.40;;
5507;SDS011;2776;51.046;6.772;2023-06-14T12:17:50;2.03;;;1.70;;
5507;SDS011;2776;51.046;6.772;2023-06-14T12:20:17;3.72;;;1.60;;
5507;SDS011;2776;51.046;6.772;2023-06-14T12:22:50;2.40;;;1.67;;
5507;SDS011;2776;51.046;6.772;2023-06-14T12:25:27;1.63;;;1.48;;
5507;SDS011;2776;51.046;6.772;2023-06-14T12:27:56;1.52;;;1.42;;
5507;SDS011;2776;51.046;6.772;2023-06-14T12:30:23;3.67;;;1.67;;
5507;SDS011;2776;51.046;6.772;2023-06-14T12:32:50;3.55;;;1.38;;
5507;SDS011;2776;51.046;6.772;2023-06-14T12:35:17;1.63;;;1.50;;
5507;SDS011;2776;51.046;6.772;2023-06-14T12:37:44;2.38;;;1.40;;
5507;SDS011;2776;51.046;6.772;2023-06-14T12:40:12;1.42;;;1.23;;
5507;SDS011;2776;51.046;6.772;2023-06-14T12:42:41;1.40;;;1.30;;
5507;SDS011;2776;51.046;6.772;2023-06-14T12:45:08;2.58;;;1.27;;
5507;SDS011;2776;51.046;6.772;2023-06-14T12:47:36;3.15;;;1.38;;
5507;SDS011;2776;51.046;6.772;2023-06-14T12:50:03;2.22;;;1.42;;
5507;SDS011;2776;51.046;6.772;2023-06-14T12:52:30;1.23;;;1.00;;
5507;SDS011;2776;51.046;6.772;2023-06-14T12:55:00;3.47;;;1.67;;
5507;SDS011;2776;51.046;6.772;2023-06-14T12:57:27;1.98;;;1.42;;
5507;SDS011;2776;51.046;6.772;2023-06-14T12:59:56;1.55;;;1.42;;
5507;SDS011;2776;51.046;6.772;2023-06-14T13:02:22;2.55;;;1.40;;
5507;SDS011;2776;51.046;6.772;2023-06-14T13:04:50;2.70;;;1.40;;
5507;SDS011;2776;51.046;6.772;2023-06-14T13:07:17;2.33;;;1.40;;
5507;SDS011;2776;51.046;6.772;2023-06-14T13:09:44;1.80;;;1.20;;
5507;SDS011;2776;51.046;6.772;2023-06-14T13:12:10;1.33;;;1.10;;
5507;SDS011;2776;51.046;6.772;2023-06-14T13:14:38;2.50;;;1.05;;
5507;SDS011;2776;51.046;6.772;2023-06-14T13:17:07;1.65;;;1.05;;
5507;SDS011;2776;51.046;6.772;2023-06-14T13:19:34;1.50;;;0.95;;
5507;SDS011;2776;51.046;6.772;2023-06-14T13:22:01;3.22;;;1.08;;
5507;SDS011;2776;51.046;6.772;2023-06-14T13:24:28;0.85;;;0.85;;
5507;SDS011;2776;51.046;6.772;2023-06-14T13:26:56;1.17;;;1.08;;
5507;SDS011;2776;51.046;6.772;2023-06-14T13:29:23;1.08;;;1.05;;
5507;SDS011;2776;51.046;6.772;2023-06-14T13:31:50;1.33;;;1.23;;
5507;SDS011;2776;51.046;6.772;2023-06-14T13:34:18;1.45;;;1.13;;
5507;SDS011;2776;51.046;6.772;2023-06-14T13:36:46;2.75;;;1.20;;
5507;SDS011;2776;51.046;6.772;2023-06-14T13:39:12;1.48;;;1.15;;
5507;SDS011;2776;51.046;6.772;2023-06-14T13:41:39;2.53;;;1.30;;
5507;SDS011;2776;51.046;6.772;2023-06-14T13:44:06;3.30;;;1.25;;
5507;SDS011;2776;51.046;6.772;2023-06-14T13:46:33;1.73;;;1.23;;
5507;SDS011;2776;51.046;6.772;2023-06-14T13:48:59;1.30;;;1.20;;
5507;SDS011;2776;51.046;6.772;2023-06-14T13:51:28;1.75;;;1.10;;
5507;SDS011;2776;51.046;6.772;2023-06-14T13:53:55;2.75;;;1.20;;
5507;SDS011;2776;51.046;6.772;2023-06-14T13:56:22;2.60;;;1.40;;
5507;SDS011;2776;51.046;6.772;2023-06-14T13:58:49;1.10;;;1.00;;
5507;SDS011;2776;51.046;6.772;2023-06-14T14:01:16;1.67;;;1.00;;
5507;SDS011;2776;51.046;6.772;2023-06-14T14:03:44;1.20;;;1.10;;
5507;SDS011;2776;51.046;6.772;2023-06-14T14:06:11;1.55;;;1.15;;
5507;SDS011;2776;51.046;6.772;2023-06-14T14:08:40;1.27;;;1.10;;
5507;SDS011;2776;51.046;6.772;2023-06-14T14:11:06;1.65;;;1.10;;
5507;SDS011;2776;51.046;6.772;2023-06-14T14:13:33;2.20;;;1.10;;
5507;SDS011;2776;51.046;6.772;2023-06-14T14:16:01;1.08;;;1.08;;
5507;SDS011;2776;51.046;6.772;2023-06-14T14:18:28;3.35;;;1.30;;
5507;SDS011;2776;51.046;6.772;2023-06-14T14:20:55;1.50;;;1.40;;
5507;SDS011;2776;51.046;6.772;2023-06-14T14:23:23;1.30;;;1.20;;
5507;SDS011;2776;51.046;6.772;2023-06-14T14:25:51;1.00;;;1.00;;
5507;SDS011;2776;51.046;6.772;2023-06-14T14:28:18;1.52;;;1.17;;
5507;SDS011;2776;51.046;6.772;2023-06-14T14:30:45;1.48;;;1.13;;
5507;SDS011;2776;51.046;6.772;2023-06-14T14:33:12;2.13;;;1.02;;
5507;SDS011;2776;51.046;6.772;2023-06-14T14:35:40;4.43;;;1.30;;
5507;SDS011;2776;51.046;6.772;2023-06-14T14:38:08;2.72;;;1.60;;
5507;SDS011;2776;51.046;6.772;2023-06-14T14:40:35;1.17;;;1.08;;
5507;SDS011;2776;51.046;6.772;2023-06-14T14:43:03;2.47;;;1.20;;
5507;SDS011;2776;51.046;6.772;2023-06-14T14:45:30;1.38;;;1.27;;
5507;SDS011;2776;51.046;6.772;2023-06-14T14:47:56;1.50;;;1.40;;
5507;SDS011;2776;51.046;6.772;2023-06-14T14:50:24;2.67;;;1.23;;
5507;SDS011;2776;51.046;6.772;2023-06-14T14:52:51;2.25;;;1.40;;
5507;SDS011;2776;51.046;6.772;2023-06-14T14:55:18;1.70;;;1.30;;
5507;SDS011;2776;51.046;6.772;2023-06-14T14:57:45;1.55;;;1.45;;
5507;SDS011;2776;51.046;6.772;2023-06-14T15:00:14;2.03;;;1.35;;
5507;SDS011;2776;51.046;6.772;2023-06-14T15:02:42;2.30;;;1.50;;
5507;SDS011;2776;51.046;6.772;2023-06-14T15:05:09;2.25;;;1.40;;
5507;SDS011;2776;51.046;6.772;2023-06-14T15:07:35;1.92;;;1.10;;
5507;SDS011;2776;51.046;6.772;2023-06-14T15:10:05;2.83;;;1.52;;
5507;SDS011;2776;51.046;6.772;2023-06-14T15:12:33;4.07;;;1.50;;
5507;SDS011;2776;51.046;6.772;2023-06-14T15:15:00;2.20;;;1.55;;
5507;SDS011;2776;51.046;6.772;2023-06-14T15:17:29;1.95;;;1.50;;
5507;SDS011;2776;51.046;6.772;2023-06-14T15:19:56;1.63;;;1.52;;
5507;SDS011;2776;51.046;6.772;2023-06-14T15:22:22;4.53;;;1.65;;
5507;SDS011;2776;51.046;6.772;2023-06-14T15:24:49;1.60;;;1.38;;
5507;SDS011;2776;51.046;6.772;2023-06-14T15:27:16;3.67;;;1.60;;
5507;SDS011;2776;51.046;6.772;2023-06-14T15:29:43;1.60;;;1.50;;